ARG1531 SACO-SABE
Flight info
| Callsign | ARG1531 |
|---|---|
| Flight time | N/A |
| Altitude | FL310 |
| Route | UTRA1G UTRAX UW24 SNT SNT9R |
| Aircraft | B738/M-SDE2E3FGHIRWXY/LB1 |
Departure
| Time | N/A |
|---|---|
| Airport | Ingeniero Aeronáutico Ambrosio L.V. Taravella International Airport (SACO) |
Arrival
| Time | 2026-05-07 18:12 |
|---|---|
| Airport | Aeroparque Jorge Newbery (SABE) |
| Time | Latitude | Longitude | Altitude | Speed | Heading |
|---|---|---|---|---|---|
| 2026-05-07 18:07 | -34.63452 | -58.25307 | 1844 ft | 164 kts | 288° |
| 2026-05-07 18:08 | -34.63024 | -58.26523 | 1677 ft | 164 kts | 289° |
| 2026-05-07 18:08 | -34.62591 | -58.27737 | 1510 ft | 164 kts | 289° |
| 2026-05-07 18:08 | -34.62165 | -58.28943 | 1391 ft | 164 kts | 288° |
| 2026-05-07 18:08 | -34.61744 | -58.30139 | 1382 ft | 165 kts | 289° |
| 2026-05-07 18:09 | -34.61324 | -58.31351 | 1381 ft | 165 kts | 288° |
| 2026-05-07 18:09 | -34.60919 | -58.32510 | 1391 ft | 158 kts | 292° |
| 2026-05-07 18:09 | -34.60365 | -58.33511 | 1361 ft | 150 kts | 302° |
| 2026-05-07 18:09 | -34.59797 | -58.34458 | 1098 ft | 149 kts | 298° |
| 2026-05-07 18:10 | -34.59300 | -58.35429 | 915 ft | 140 kts | 296° |
| 2026-05-07 18:10 | -34.58852 | -58.36315 | 817 ft | 126 kts | 299° |
| 2026-05-07 18:10 | -34.58363 | -58.37134 | 638 ft | 125 kts | 300° |
| 2026-05-07 18:10 | -34.57921 | -58.37973 | 515 ft | 126 kts | 299° |
| 2026-05-07 18:11 | -34.57426 | -58.38864 | 323 ft | 133 kts | 300° |
| 2026-05-07 18:11 | -34.57098 | -58.39470 | 236 ft | 133 kts | 301° |
| 2026-05-07 18:11 | -34.56403 | -58.40704 | 31 ft | 137 kts | 302° |
| 2026-05-07 18:11 | -34.55941 | -58.41541 | -6 ft | 85 kts | 301° |
| 2026-05-07 18:12 | -34.55770 | -58.41851 | -12 ft | 13 kts | 303° |
| 2026-05-07 18:12 | -34.55728 | -58.41912 | -12 ft | 6 kts | 336° |
| 2026-05-07 18:12 | -34.55692 | -58.41905 | -12 ft | 5 kts | 32° |
| 2026-05-07 18:12 | -34.55677 | -58.41870 | -12 ft | 5 kts | 94° |
| 2026-05-07 18:13 | -34.55692 | -58.41830 | -12 ft | 5 kts | 121° |
| 2026-05-07 18:13 | -34.55710 | -58.41796 | -11 ft | 4 kts | 122° |
| 2026-05-07 18:13 | -34.55727 | -58.41763 | -11 ft | 6 kts | 120° |
| 2026-05-07 18:13 | -34.55748 | -58.41716 | -10 ft | 7 kts | 117° |
| 2026-05-07 18:14 | -34.55769 | -58.41664 | -10 ft | 7 kts | 116° |
| 2026-05-07 18:14 | -34.55783 | -58.41614 | -9 ft | 6 kts | 84° |
| 2026-05-07 18:14 | -34.55753 | -58.41571 | -10 ft | 7 kts | 35° |
| 2026-05-07 18:14 | -34.55711 | -58.41542 | -9 ft | 7 kts | 16° |
| 2026-05-07 18:15 | -34.55669 | -58.41534 | -9 ft | 1 kts | 6° |
| 2026-05-07 18:15 | -34.55659 | -58.41533 | -9 ft | 0 kts | 6° |